Holland, Minnesota
Current Conditions -  °F | °C
As of 12:14 AM on Thursday 23 Oct 2014 (Local Time) from KPQN Reporting Station
Haze Haze  
Wind Chill: 54°   Ceiling: 200
Heat Index: 54°   Visibility: 2.5mi
Dew Point: 54°   Wind: 6mph
Humidity: 100%   Direction: 240°WSW
Pressure: 30.01"   Gusts: NA
Location:  44.09°N, 96.19°W
Report Text: KPQN 230514Z AUTO 24005KT 2 1/2SM BR OVC002 12/12 A3001 RMK AO2
Loading
Personal Weather Stations






























Interactive Weather Map New forecast layout! Learn more

10-Day Weather Forecast

Advertisements
Track Severe Weather on mobile